sensor_id;sensor_type;location;lat;lon;timestamp;pressure;altitude;pressure_sealevel;temperature;humidity
47670;BME280;33408;52.062;11.722;2023-08-07T00:01:20;100045.56;;;16.03;100.00
47670;BME280;33408;52.062;11.722;2023-08-07T00:03:46;100040.72;;;16.13;100.00
47670;BME280;33408;52.062;11.722;2023-08-07T00:06:13;100039.22;;;15.91;100.00
47670;BME280;33408;52.062;11.722;2023-08-07T00:08:41;100048.47;;;16.14;100.00
47670;BME280;33408;52.062;11.722;2023-08-07T00:11:08;100050.97;;;16.33;100.00
47670;BME280;33408;52.062;11.722;2023-08-07T00:13:35;100037.66;;;16.04;100.00
47670;BME280;33408;52.062;11.722;2023-08-07T00:16:02;100048.66;;;16.27;100.00
47670;BME280;33408;52.062;11.722;2023-08-07T00:18:29;100046.75;;;16.47;100.00
47670;BME280;33408;52.062;11.722;2023-08-07T00:20:55;100052.97;;;16.28;100.00
47670;BME280;33408;52.062;11.722;2023-08-07T00:23:22;100048.94;;;16.05;100.00
47670;BME280;33408;52.062;11.722;2023-08-07T00:25:50;100047.19;;;16.06;100.00
47670;BME280;33408;52.062;11.722;2023-08-07T00:28:17;100049.00;;;16.21;100.00
47670;BME280;33408;52.062;11.722;2023-08-07T00:30:43;100045.72;;;16.33;100.00
47670;BME280;33408;52.062;11.722;2023-08-07T00:33:10;100046.13;;;16.26;100.00
47670;BME280;33408;52.062;11.722;2023-08-07T00:35:37;100046.59;;;16.66;100.00
47670;BME280;33408;52.062;11.722;2023-08-07T00:38:03;100046.41;;;16.53;100.00
47670;BME280;33408;52.062;11.722;2023-08-07T00:40:36;100041.03;;;16.56;100.00
47670;BME280;33408;52.062;11.722;2023-08-07T00:43:04;100045.56;;;16.36;100.00
47670;BME280;33408;52.062;11.722;2023-08-07T00:45:35;100042.41;;;16.63;100.00
47670;BME280;33408;52.062;11.722;2023-08-07T00:48:03;100032.13;;;16.27;100.00
47670;BME280;33408;52.062;11.722;2023-08-07T00:50:30;100039.56;;;16.18;100.00
47670;BME280;33408;52.062;11.722;2023-08-07T00:52:57;100039.22;;;16.25;100.00
47670;BME280;33408;52.062;11.722;2023-08-07T00:55:24;100042.84;;;16.22;100.00
47670;BME280;33408;52.062;11.722;2023-08-07T00:57:51;100047.50;;;15.99;100.00
47670;BME280;33408;52.062;11.722;2023-08-07T01:00:19;100042.91;;;15.87;100.00
47670;BME280;33408;52.062;11.722;2023-08-07T01:02:47;100044.69;;;16.20;100.00
47670;BME280;33408;52.062;11.722;2023-08-07T01:05:16;100043.41;;;16.11;100.00
47670;BME280;33408;52.062;11.722;2023-08-07T01:07:43;100040.94;;;16.08;100.00
47670;BME280;33408;52.062;11.722;2023-08-07T01:10:10;100033.78;;;15.78;100.00
47670;BME280;33408;52.062;11.722;2023-08-07T01:12:42;100040.88;;;16.10;100.00
47670;BME280;33408;52.062;11.722;2023-08-07T01:15:13;100031.16;;;15.96;100.00
47670;BME280;33408;52.062;11.722;2023-08-07T01:17:42;100035.06;;;15.87;100.00
47670;BME280;33408;52.062;11.722;2023-08-07T01:20:11;100035.31;;;15.82;100.00
47670;BME280;33408;52.062;11.722;2023-08-07T01:22:39;100037.31;;;15.77;100.00
47670;BME280;33408;52.062;11.722;2023-08-07T01:25:06;100033.63;;;15.81;100.00
47670;BME280;33408;52.062;11.722;2023-08-07T01:27:36;100036.47;;;15.77;100.00
47670;BME280;33408;52.062;11.722;2023-08-07T01:30:12;100027.84;;;15.75;100.00
47670;BME280;33408;52.062;11.722;2023-08-07T01:32:53;100038.31;;;15.75;100.00
47670;BME280;33408;52.062;11.722;2023-08-07T01:35:23;100021.56;;;15.79;100.00
47670;BME280;33408;52.062;11.722;2023-08-07T01:37:57;100029.75;;;15.89;100.00
47670;BME280;33408;52.062;11.722;2023-08-07T01:40:25;100024.69;;;15.68;100.00
47670;BME280;33408;52.062;11.722;2023-08-07T01:42:53;100026.06;;;15.93;100.00
47670;BME280;33408;52.062;11.722;2023-08-07T01:45:23;100018.34;;;16.07;100.00
47670;BME280;33408;52.062;11.722;2023-08-07T01:47:50;100020.69;;;15.96;100.00
47670;BME280;33408;52.062;11.722;2023-08-07T01:50:17;100016.69;;;15.71;100.00
47670;BME280;33408;52.062;11.722;2023-08-07T01:52:44;100014.56;;;15.79;100.00
47670;BME280;33408;52.062;11.722;2023-08-07T01:55:12;100023.25;;;15.80;100.00
47670;BME280;33408;52.062;11.722;2023-08-07T01:57:39;100019.22;;;15.90;100.00
47670;BME280;33408;52.062;11.722;2023-08-07T02:00:07;100023.38;;;15.94;100.00
47670;BME280;33408;52.062;11.722;2023-08-07T02:02:34;100030.63;;;15.72;100.00
47670;BME280;33408;52.062;11.722;2023-08-07T02:05:01;100029.66;;;15.73;100.00
47670;BME280;33408;52.062;11.722;2023-08-07T02:07:28;100031.09;;;15.80;100.00
47670;BME280;33408;52.062;11.722;2023-08-07T02:09:54;100027.72;;;15.78;100.00
47670;BME280;33408;52.062;11.722;2023-08-07T02:12:22;100036.31;;;15.80;100.00
47670;BME280;33408;52.062;11.722;2023-08-07T02:14:49;100042.00;;;15.88;100.00
47670;BME280;33408;52.062;11.722;2023-08-07T02:17:16;100039.22;;;15.91;100.00
47670;BME280;33408;52.062;11.722;2023-08-07T02:19:42;100043.31;;;15.79;100.00
47670;BME280;33408;52.062;11.722;2023-08-07T02:22:09;100039.28;;;15.72;100.00
47670;BME280;33408;52.062;11.722;2023-08-07T02:24:36;100037.94;;;15.65;100.00
47670;BME280;33408;52.062;11.722;2023-08-07T02:27:03;100034.06;;;15.72;100.00
47670;BME280;33408;52.062;11.722;2023-08-07T02:29:31;100035.69;;;15.57;100.00
47670;BME280;33408;52.062;11.722;2023-08-07T02:31:59;100038.31;;;15.75;100.00
47670;BME280;33408;52.062;11.722;2023-08-07T02:34:26;100034.75;;;15.58;100.00
47670;BME280;33408;52.062;11.722;2023-08-07T02:36:52;100045.91;;;15.62;100.00
47670;BME280;33408;52.062;11.722;2023-08-07T02:39:19;100040.31;;;15.52;100.00
47670;BME280;33408;52.062;11.722;2023-08-07T02:41:45;100036.91;;;15.50;100.00
47670;BME280;33408;52.062;11.722;2023-08-07T02:44:12;100040.91;;;15.40;100.00
47670;BME280;33408;52.062;11.722;2023-08-07T02:46:40;100047.19;;;15.53;100.00
47670;BME280;33408;52.062;11.722;2023-08-07T02:49:06;100041.97;;;15.36;100.00
47670;BME280;33408;52.062;11.722;2023-08-07T02:51:33;100040.22;;;15.54;100.00
47670;BME280;33408;52.062;11.722;2023-08-07T02:53:59;100040.13;;;15.73;100.00
47670;BME280;33408;52.062;11.722;2023-08-07T02:56:26;100037.84;;;15.66;100.00
47670;BME280;33408;52.062;11.722;2023-08-07T02:58:53;100037.38;;;15.58;100.00
47670;BME280;33408;52.062;11.722;2023-08-07T03:01:19;100034.28;;;15.67;100.00
47670;BME280;33408;52.062;11.722;2023-08-07T03:03:48;100041.75;;;15.58;100.00
47670;BME280;33408;52.062;11.722;2023-08-07T03:06:14;100044.06;;;15.46;100.00
47670;BME280;33408;52.062;11.722;2023-08-07T03:08:41;100048.44;;;15.63;100.00
47670;BME280;33408;52.062;11.722;2023-08-07T03:11:08;100042.59;;;15.58;100.00
47670;BME280;33408;52.062;11.722;2023-08-07T03:13:34;100050.03;;;15.48;100.00
47670;BME280;33408;52.062;11.722;2023-08-07T03:16:02;100050.03;;;15.48;100.00
47670;BME280;33408;52.062;11.722;2023-08-07T03:18:30;100056.91;;;15.51;100.00
47670;BME280;33408;52.062;11.722;2023-08-07T03:20:59;100062.63;;;15.40;100.00
47670;BME280;33408;52.062;11.722;2023-08-07T03:23:27;100069.28;;;15.65;100.00
47670;BME280;33408;52.062;11.722;2023-08-07T03:26:02;100065.25;;;15.40;100.00
47670;BME280;33408;52.062;11.722;2023-08-07T03:28:28;100063.81;;;15.52;100.00
47670;BME280;33408;52.062;11.722;2023-08-07T03:30:55;100071.66;;;15.52;100.00
47670;BME280;33408;52.062;11.722;2023-08-07T03:33:22;100076.09;;;15.50;100.00
47670;BME280;33408;52.062;11.722;2023-08-07T03:35:48;100080.56;;;15.48;100.00
47670;BME280;33408;52.062;11.722;2023-08-07T03:38:16;100083.69;;;15.55;100.00
47670;BME280;33408;52.062;11.722;2023-08-07T03:40:43;100082.72;;;15.57;100.00
47670;BME280;33408;52.062;11.722;2023-08-07T03:43:09;100086.13;;;15.23;100.00
47670;BME280;33408;52.062;11.722;2023-08-07T03:45:36;100084.31;;;15.42;100.00
47670;BME280;33408;52.062;11.722;2023-08-07T03:48:03;100085.47;;;15.37;100.00
47670;BME280;33408;52.062;11.722;2023-08-07T03:50:29;100087.56;;;15.47;100.00
47670;BME280;33408;52.062;11.722;2023-08-07T03:52:59;100091.91;;;15.47;100.00
47670;BME280;33408;52.062;11.722;2023-08-07T03:55:27;100094.28;;;15.52;100.00
47670;BME280;33408;52.062;11.722;2023-08-07T03:57:55;100089.84;;;15.36;100.00
47670;BME280;33408;52.062;11.722;2023-08-07T04:00:21;100095.38;;;15.47;100.00
47670;BME280;33408;52.062;11.722;2023-08-07T04:02:48;100094.84;;;15.41;100.00
47670;BME280;33408;52.062;11.722;2023-08-07T04:05:15;100091.75;;;15.50;100.00
47670;BME280;33408;52.062;11.722;2023-08-07T04:07:41;100089.06;;;15.52;100.00
47670;BME280;33408;52.062;11.722;2023-08-07T04:10:08;100086.69;;;15.47;100.00
47670;BME280;33408;52.062;11.722;2023-08-07T04:12:37;100095.69;;;15.41;100.00
47670;BME280;33408;52.062;11.722;2023-08-07T04:15:04;100090.09;;;15.66;100.00
47670;BME280;33408;52.062;11.722;2023-08-07T04:17:32;100085.88;;;15.64;100.00
47670;BME280;33408;52.062;11.722;2023-08-07T04:19:58;100082.72;;;15.57;100.00
47670;BME280;33408;52.062;11.722;2023-08-07T04:22:25;100086.47;;;15.52;100.00
47670;BME280;33408;52.062;11.722;2023-08-07T04:24:51;100088.31;;;15.67;100.00
47670;BME280;33408;52.062;11.722;2023-08-07T04:27:18;100089.31;;;15.64;100.00
47670;BME280;33408;52.062;11.722;2023-08-07T04:29:46;100082.94;;;15.70;100.00
47670;BME280;33408;52.062;11.722;2023-08-07T04:32:12;100090.00;;;15.68;100.00
47670;BME280;33408;52.062;11.722;2023-08-07T04:34:39;100102.50;;;15.80;100.00
47670;BME280;33408;52.062;11.722;2023-08-07T04:37:06;100102.25;;;15.85;100.00
47670;BME280;33408;52.062;11.722;2023-08-07T04:39:33;100110.88;;;15.87;100.00
47670;BME280;33408;52.062;11.722;2023-08-07T04:42:01;100111.88;;;15.84;100.00
47670;BME280;33408;52.062;11.722;2023-08-07T04:44:27;100122.19;;;15.88;100.00
47670;BME280;33408;52.062;11.722;2023-08-07T04:46:55;100114.78;;;15.96;100.00
47670;BME280;33408;52.062;11.722;2023-08-07T04:49:22;100112.88;;;15.99;100.00
47670;BME280;33408;52.062;11.722;2023-08-07T04:51:49;100115.31;;;16.02;100.00
47670;BME280;33408;52.062;11.722;2023-08-07T04:54:15;100118.78;;;16.03;100.00
47670;BME280;33408;52.062;11.722;2023-08-07T04:56:42;100122.00;;;16.08;100.00
47670;BME280;33408;52.062;11.722;2023-08-07T04:59:09;100116.16;;;16.03;100.00
47670;BME280;33408;52.062;11.722;2023-08-07T05:01:36;100115.00;;;16.09;100.00
47670;BME280;33408;52.062;11.722;2023-08-07T05:04:05;100111.50;;;16.26;100.00
47670;BME280;33408;52.062;11.722;2023-08-07T05:06:31;100119.44;;;16.24;100.00
47670;BME280;33408;52.062;11.722;2023-08-07T05:08:58;100117.25;;;16.32;100.00
47670;BME280;33408;52.062;11.722;2023-08-07T05:11:25;100112.66;;;16.53;100.00
47670;BME280;33408;52.062;11.722;2023-08-07T05:13:51;100111.56;;;16.41;100.00
47670;BME280;33408;52.062;11.722;2023-08-07T05:16:18;100112.97;;;16.65;100.00
47670;BME280;33408;52.062;11.722;2023-08-07T05:18:45;100116.19;;;16.70;100.00
47670;BME280;33408;52.062;11.722;2023-08-07T05:21:13;100118.44;;;16.60;100.00
47670;BME280;33408;52.062;11.722;2023-08-07T05:23:39;100123.53;;;16.63;100.00
47670;BME280;33408;52.062;11.722;2023-08-07T05:26:06;100120.59;;;16.36;100.00
47670;BME280;33408;52.062;11.722;2023-08-07T05:28:32;100124.19;;;16.33;100.00
47670;BME280;33408;52.062;11.722;2023-08-07T05:30:59;100125.47;;;16.26;100.00
47670;BME280;33408;52.062;11.722;2023-08-07T05:33:25;100117.06;;;16.19;100.00
47670;BME280;33408;52.062;11.722;2023-08-07T05:35:52;100117.81;;;16.39;100.00
47670;BME280;33408;52.062;11.722;2023-08-07T05:38:22;100127.97;;;16.61;100.00
47670;BME280;33408;52.062;11.722;2023-08-07T05:40:48;100128.69;;;17.28;100.00
47670;BME280;33408;52.062;11.722;2023-08-07T05:43:16;100122.50;;;17.76;100.00
47670;BME280;33408;52.062;11.722;2023-08-07T05:45:43;100127.19;;;17.71;100.00
47670;BME280;33408;52.062;11.722;2023-08-07T05:48:11;100132.13;;;17.61;100.00
47670;BME280;33408;52.062;11.722;2023-08-07T05:50:38;100127.88;;;16.96;100.00
47670;BME280;33408;52.062;11.722;2023-08-07T05:53:04;100143.69;;;16.77;100.00
47670;BME280;33408;52.062;11.722;2023-08-07T05:55:32;100141.91;;;16.62;100.00
47670;BME280;33408;52.062;11.722;2023-08-07T05:57:59;100138.94;;;16.52;100.00
47670;BME280;33408;52.062;11.722;2023-08-07T06:00:25;100141.88;;;16.46;100.00
47670;BME280;33408;52.062;11.722;2023-08-07T06:02:53;100142.00;;;16.60;100.00
47670;BME280;33408;52.062;11.722;2023-08-07T06:05:20;100144.69;;;16.58;100.00
47670;BME280;33408;52.062;11.722;2023-08-07T06:07:46;100146.38;;;16.59;100.00
47670;BME280;33408;52.062;11.722;2023-08-07T06:10:13;100140.72;;;16.67;100.00
47670;BME280;33408;52.062;11.722;2023-08-07T06:12:41;100141.06;;;16.77;100.00
47670;BME280;33408;52.062;11.722;2023-08-07T06:15:08;100146.06;;;16.82;100.00
47670;BME280;33408;52.062;11.722;2023-08-07T06:17:35;100148.78;;;16.80;100.00
47670;BME280;33408;52.062;11.722;2023-08-07T06:20:02;100150.47;;;16.81;100.00
47670;BME280;33408;52.062;11.722;2023-08-07T06:22:30;100148.78;;;16.80;100.00
47670;BME280;33408;52.062;11.722;2023-08-07T06:24:58;100149.41;;;16.85;100.00
47670;BME280;33408;52.062;11.722;2023-08-07T06:27:24;100152.75;;;16.71;100.00
47670;BME280;33408;52.062;11.722;2023-08-07T06:29:52;100155.63;;;16.83;100.00
47670;BME280;33408;52.062;11.722;2023-08-07T06:32:19;100147.66;;;16.86;100.00
47670;BME280;33408;52.062;11.722;2023-08-07T06:34:45;100154.16;;;16.77;100.00
47670;BME280;33408;52.062;11.722;2023-08-07T06:37:13;100157.81;;;16.74;100.00
47670;BME280;33408;52.062;11.722;2023-08-07T06:39:40;100161.38;;;16.56;100.00
47670;BME280;33408;52.062;11.722;2023-08-07T06:42:07;100155.84;;;16.62;100.00
47670;BME280;33408;52.062;11.722;2023-08-07T06:44:33;100162.56;;;16.66;100.00
47670;BME280;33408;52.062;11.722;2023-08-07T06:47:02;100153.13;;;16.64;100.00
47670;BME280;33408;52.062;11.722;2023-08-07T06:49:28;100167.94;;;16.65;100.00
47670;BME280;33408;52.062;11.722;2023-08-07T06:51:57;100151.44;;;16.63;100.00
47670;BME280;33408;52.062;11.722;2023-08-07T06:54:23;100159.63;;;16.72;100.00
47670;BME280;33408;52.062;11.722;2023-08-07T06:56:50;100168.44;;;16.71;100.00
47670;BME280;33408;52.062;11.722;2023-08-07T06:59:16;100171.50;;;16.46;100.00
47670;BME280;33408;52.062;11.722;2023-08-07T07:01:43;100171.88;;;16.38;100.00
47670;BME280;33408;52.062;11.722;2023-08-07T07:04:11;100182.69;;;16.66;100.00
47670;BME280;33408;52.062;11.722;2023-08-07T07:06:38;100189.56;;;16.51;100.00
47670;BME280;33408;52.062;11.722;2023-08-07T07:09:04;100189.41;;;16.54;100.00
47670;BME280;33408;52.062;11.722;2023-08-07T07:11:31;100197.34;;;16.52;100.00
47670;BME280;33408;52.062;11.722;2023-08-07T07:13:57;100206.66;;;16.74;100.00
47670;BME280;33408;52.062;11.722;2023-08-07T07:16:24;100194.75;;;16.86;100.00
47670;BME280;33408;52.062;11.722;2023-08-07T07:18:51;100215.19;;;16.77;100.00
47670;BME280;33408;52.062;11.722;2023-08-07T07:21:19;100209.06;;;16.78;100.00
47670;BME280;33408;52.062;11.722;2023-08-07T07:23:46;100210.38;;;16.87;100.00
47670;BME280;33408;52.062;11.722;2023-08-07T07:26:13;100211.44;;;16.83;100.00
47670;BME280;33408;52.062;11.722;2023-08-07T07:28:39;100207.25;;;16.97;100.00
47670;BME280;33408;52.062;11.722;2023-08-07T07:31:06;100213.44;;;16.95;100.00
47670;BME280;33408;52.062;11.722;2023-08-07T07:33:36;100213.44;;;16.95;100.00
47670;BME280;33408;52.062;11.722;2023-08-07T07:36:06;100211.44;;;16.83;100.00
47670;BME280;33408;52.062;11.722;2023-08-07T07:38:34;100225.91;;;16.90;100.00
47670;BME280;33408;52.062;11.722;2023-08-07T07:41:01;100222.59;;;16.87;100.00
47670;BME280;33408;52.062;11.722;2023-08-07T07:43:27;100237.69;;;16.82;100.00
47670;BME280;33408;52.062;11.722;2023-08-07T07:45:57;100234.88;;;16.69;100.00
47670;BME280;33408;52.062;11.722;2023-08-07T07:48:23;100229.63;;;16.69;100.00
47670;BME280;33408;52.062;11.722;2023-08-07T07:50:50;100230.06;;;16.77;100.00
47670;BME280;33408;52.062;11.722;2023-08-07T07:53:18;100237.94;;;16.77;100.00
47670;BME280;33408;52.062;11.722;2023-08-07T07:55:48;100241.38;;;16.77;100.00
47670;BME280;33408;52.062;11.722;2023-08-07T07:58:14;100239.63;;;16.78;100.00
47670;BME280;33408;52.062;11.722;2023-08-07T08:00:41;100241.94;;;16.84;100.00
47670;BME280;33408;52.062;11.722;2023-08-07T08:03:08;100245.25;;;16.70;100.00
47670;BME280;33408;52.062;11.722;2023-08-07T08:05:34;100257.34;;;16.73;100.00
47670;BME280;33408;52.062;11.722;2023-08-07T08:08:01;100259.69;;;16.62;100.00
47670;BME280;33408;52.062;11.722;2023-08-07T08:10:28;100277.09;;;16.78;100.00
47670;BME280;33408;52.062;11.722;2023-08-07T08:12:56;100263.28;;;16.94;100.00
47670;BME280;33408;52.062;11.722;2023-08-07T08:15:23;100262.31;;;16.95;100.00
47670;BME280;33408;52.062;11.722;2023-08-07T08:17:50;100264.53;;;17.03;100.00
47670;BME280;33408;52.062;11.722;2023-08-07T08:20:16;100265.28;;;16.89;100.00
47670;BME280;33408;52.062;11.722;2023-08-07T08:22:45;100268.19;;;16.83;100.00
47670;BME280;33408;52.062;11.722;2023-08-07T08:25:12;100271.13;;;16.76;100.00
47670;BME280;33408;52.062;11.722;2023-08-07T08:27:39;100278.16;;;17.09;100.00
47670;BME280;33408;52.062;11.722;2023-08-07T08:30:08;100275.72;;;17.22;100.00
47670;BME280;33408;52.062;11.722;2023-08-07T08:32:35;100276.13;;;17.14;100.00
47670;BME280;33408;52.062;11.722;2023-08-07T08:35:01;100277.97;;;17.46;100.00
47670;BME280;33408;52.062;11.722;2023-08-07T08:37:28;100263.66;;;17.52;100.00
47670;BME280;33408;52.062;11.722;2023-08-07T08:39:55;100269.66;;;17.38;100.00
47670;BME280;33408;52.062;11.722;2023-08-07T08:42:21;100281.91;;;17.53;100.00
47670;BME280;33408;52.062;11.722;2023-08-07T08:44:51;100274.13;;;17.83;100.00
47670;BME280;33408;52.062;11.722;2023-08-07T08:47:20;100274.41;;;17.95;100.00
47670;BME280;33408;52.062;11.722;2023-08-07T08:49:48;100277.75;;;18.43;100.00
47670;BME280;33408;52.062;11.722;2023-08-07T08:52:16;100278.75;;;18.56;100.00
47670;BME280;33408;52.062;11.722;2023-08-07T08:54:43;100271.63;;;18.58;100.00
47670;BME280;33408;52.062;11.722;2023-08-07T08:57:11;100262.03;;;18.43;100.00
47670;BME280;33408;52.062;11.722;2023-08-07T08:59:41;100264.81;;;18.40;100.00
47670;BME280;33408;52.062;11.722;2023-08-07T09:02:08;100269.97;;;18.41;100.00
47670;BME280;33408;52.062;11.722;2023-08-07T09:04:37;100269.63;;;18.17;100.00
47670;BME280;33408;52.062;11.722;2023-08-07T09:07:04;100275.47;;;18.22;100.00
47670;BME280;33408;52.062;11.722;2023-08-07T09:09:31;100271.13;;;18.37;100.00
47670;BME280;33408;52.062;11.722;2023-08-07T09:11:58;100280.38;;;18.73;100.00
47670;BME280;33408;52.062;11.722;2023-08-07T09:14:30;100281.25;;;18.88;100.00
47670;BME280;33408;52.062;11.722;2023-08-07T09:16:58;100271.69;;;18.87;100.00
47670;BME280;33408;52.062;11.722;2023-08-07T09:19:25;100279.56;;;18.43;100.00
47670;BME280;33408;52.062;11.722;2023-08-07T09:21:54;100283.56;;;18.34;100.00
47670;BME280;33408;52.062;11.722;2023-08-07T09:24:20;100276.88;;;18.28;100.00
47670;BME280;33408;52.062;11.722;2023-08-07T09:26:47;100283.47;;;18.35;100.00
47670;BME280;33408;52.062;11.722;2023-08-07T09:29:14;100284.94;;;18.55;100.00
47670;BME280;33408;52.062;11.722;2023-08-07T09:31:43;100276.34;;;18.82;100.00
47670;BME280;33408;52.062;11.722;2023-08-07T09:34:11;100282.53;;;18.81;100.00
47670;BME280;33408;52.062;11.722;2023-08-07T09:36:39;100284.41;;;18.79;100.00
47670;BME280;33408;52.062;11.722;2023-08-07T09:39:08;100278.13;;;18.82;100.00
47670;BME280;33408;52.062;11.722;2023-08-07T09:41:37;100284.81;;;18.87;100.00
47670;BME280;33408;52.062;11.722;2023-08-07T09:44:06;100279.31;;;19.06;100.00
47670;BME280;33408;52.062;11.722;2023-08-07T09:46:40;100286.72;;;18.85;100.00
47670;BME280;33408;52.062;11.722;2023-08-07T09:49:07;100281.34;;;19.01;100.00
47670;BME280;33408;52.062;11.722;2023-08-07T09:51:41;100275.06;;;19.18;100.00
47670;BME280;33408;52.062;11.722;2023-08-07T09:54:09;100277.31;;;19.39;100.00
47670;BME280;33408;52.062;11.722;2023-08-07T09:56:37;100279.66;;;19.29;100.00
47670;BME280;33408;52.062;11.722;2023-08-07T09:59:04;100279.41;;;19.05;100.00
47670;BME280;33408;52.062;11.722;2023-08-07T10:01:31;100286.41;;;19.19;100.00
47670;BME280;33408;52.062;11.722;2023-08-07T10:03:58;100267.47;;;18.54;100.00
47670;BME280;33408;52.062;11.722;2023-08-07T10:06:25;100276.44;;;18.81;100.00
47670;BME280;33408;52.062;11.722;2023-08-07T10:08:52;100272.69;;;19.42;100.00
47670;BME280;33408;52.062;11.722;2023-08-07T10:11:22;100277.13;;;19.27;100.00
47670;BME280;33408;52.062;11.722;2023-08-07T10:13:50;100275.06;;;19.33;100.00
47670;BME280;33408;52.062;11.722;2023-08-07T10:16:16;100265.22;;;19.78;100.00
47670;BME280;33408;52.062;11.722;2023-08-07T10:18:46;100266.06;;;19.64;100.00
47670;BME280;33408;52.062;11.722;2023-08-07T10:21:12;100274.22;;;19.74;100.00
47670;BME280;33408;52.062;11.722;2023-08-07T10:23:40;100266.91;;;19.79;100.00
47670;BME280;33408;52.062;11.722;2023-08-07T10:26:09;100269.75;;;19.76;100.00
47670;BME280;33408;52.062;11.722;2023-08-07T10:28:40;100272.19;;;20.06;100.00
47670;BME280;33408;52.062;11.722;2023-08-07T10:31:09;100269.06;;;20.39;100.00
47670;BME280;33408;52.062;11.722;2023-08-07T10:33:38;100270.78;;;20.40;100.00
47670;BME280;33408;52.062;11.722;2023-08-07T10:36:08;100260.50;;;20.89;100.00
47670;BME280;33408;52.062;11.722;2023-08-07T10:38:36;100267.25;;;20.67;100.00
47670;BME280;33408;52.062;11.722;2023-08-07T10:41:07;100271.66;;;20.67;98.26
47670;BME280;33408;52.062;11.722;2023-08-07T10:43:39;100257.81;;;20.50;98.67
47670;BME280;33408;52.062;11.722;2023-08-07T10:46:05;100268.03;;;20.02;100.00
47670;BME280;33408;52.062;11.722;2023-08-07T10:48:39;100280.22;;;19.20;100.00
47670;BME280;33408;52.062;11.722;2023-08-07T10:51:07;100277.50;;;18.92;100.00
47670;BME280;33408;52.062;11.722;2023-08-07T10:53:36;100291.75;;;18.88;100.00
47670;BME280;33408;52.062;11.722;2023-08-07T10:56:03;100292.91;;;18.99;100.00
47670;BME280;33408;52.062;11.722;2023-08-07T10:58:34;100294.13;;;18.77;100.00
47670;BME280;33408;52.062;11.722;2023-08-07T11:01:21;100298.25;;;18.67;100.00
47670;BME280;33408;52.062;11.722;2023-08-07T11:03:52;100310.34;;;18.25;100.00
47670;BME280;33408;52.062;11.722;2023-08-07T11:06:22;100319.44;;;18.33;100.00
47670;BME280;33408;52.062;11.722;2023-08-07T11:08:50;100308.13;;;18.33;100.00
47670;BME280;33408;52.062;11.722;2023-08-07T11:11:16;100313.44;;;18.31;100.00
47670;BME280;33408;52.062;11.722;2023-08-07T11:13:43;100314.47;;;18.29;100.00
47670;BME280;33408;52.062;11.722;2023-08-07T11:16:11;100325.84;;;18.13;100.00
47670;BME280;33408;52.062;11.722;2023-08-07T11:18:39;100315.44;;;18.12;100.00
47670;BME280;33408;52.062;11.722;2023-08-07T11:21:07;100307.69;;;18.40;100.00
47670;BME280;33408;52.062;11.722;2023-08-07T11:23:33;100301.13;;;18.48;100.00
47670;BME280;33408;52.062;11.722;2023-08-07T11:26:00;100306.94;;;18.53;100.00
47670;BME280;33408;52.062;11.722;2023-08-07T11:28:28;100306.50;;;18.91;100.00
47670;BME280;33408;52.062;11.722;2023-08-07T11:30:56;100295.06;;;19.06;100.00
47670;BME280;33408;52.062;11.722;2023-08-07T11:33:23;100303.50;;;19.11;100.00
47670;BME280;33408;52.062;11.722;2023-08-07T11:35:53;100300.41;;;19.19;100.00
47670;BME280;33408;52.062;11.722;2023-08-07T11:38:29;100310.34;;;19.28;100.00
47670;BME280;33408;52.062;11.722;2023-08-07T11:40:57;100295.53;;;19.27;100.00
47670;BME280;33408;52.062;11.722;2023-08-07T11:43:27;100302.81;;;19.22;100.00
47670;BME280;33408;52.062;11.722;2023-08-07T11:45:53;100316.56;;;19.13;100.00
47670;BME280;33408;52.062;11.722;2023-08-07T11:48:23;100315.31;;;19.19;100.00
47670;BME280;33408;52.062;11.722;2023-08-07T11:50:51;100315.31;;;19.19;100.00
47670;BME280;33408;52.062;11.722;2023-08-07T11:53:19;100324.31;;;19.58;100.00
47670;BME280;33408;52.062;11.722;2023-08-07T11:55:47;100302.13;;;19.76;100.00
47670;BME280;33408;52.062;11.722;2023-08-07T11:58:13;100299.22;;;19.66;100.00
47670;BME280;33408;52.062;11.722;2023-08-07T12:00:43;100300.06;;;19.81;100.00
47670;BME280;33408;52.062;11.722;2023-08-07T12:03:23;100296.53;;;19.95;100.00
47670;BME280;33408;52.062;11.722;2023-08-07T12:05:52;100292.44;;;19.77;100.00
47670;BME280;33408;52.062;11.722;2023-08-07T12:08:19;100298.09;;;19.71;100.00
47670;BME280;33408;52.062;11.722;2023-08-07T12:10:49;100288.31;;;19.73;100.00
47670;BME280;33408;52.062;11.722;2023-08-07T12:13:15;100318.22;;;19.43;100.00
47670;BME280;33408;52.062;11.722;2023-08-07T12:15:42;100319.75;;;19.18;100.00
47670;BME280;33408;52.062;11.722;2023-08-07T12:18:09;100336.41;;;18.58;100.00
47670;BME280;33408;52.062;11.722;2023-08-07T12:20:37;100338.91;;;18.45;100.00
47670;BME280;33408;52.062;11.722;2023-08-07T12:23:13;100336.34;;;18.74;100.00
47670;BME280;33408;52.062;11.722;2023-08-07T12:25:41;100329.88;;;18.80;100.00
47670;BME280;33408;52.062;11.722;2023-08-07T12:28:07;100350.31;;;18.90;100.00
47670;BME280;33408;52.062;11.722;2023-08-07T12:30:34;100349.88;;;18.82;100.00
47670;BME280;33408;52.062;11.722;2023-08-07T12:33:01;100345.44;;;18.38;100.00